sensor_id;sensor_type;location;lat;lon;timestamp;P1;durP1;ratioP1;P2;durP2;ratioP2
76731;SDS011;65656;51.130;13.658;2023-06-19T00:04:01;22.45;;;20.85;;
76731;SDS011;65656;51.130;13.658;2023-06-19T00:08:03;27.05;;;25.27;;
76731;SDS011;65656;51.130;13.658;2023-06-19T00:12:05;23.75;;;21.95;;
76731;SDS011;65656;51.130;13.658;2023-06-19T00:16:07;22.95;;;21.33;;
76731;SDS011;65656;51.130;13.658;2023-06-19T00:20:10;23.40;;;21.73;;
76731;SDS011;65656;51.130;13.658;2023-06-19T00:24:11;20.88;;;19.33;;
76731;SDS011;65656;51.130;13.658;2023-06-19T00:28:13;28.35;;;26.65;;
76731;SDS011;65656;51.130;13.658;2023-06-19T00:32:14;27.38;;;25.52;;
76731;SDS011;65656;51.130;13.658;2023-06-19T00:36:17;26.88;;;25.27;;
76731;SDS011;65656;51.130;13.658;2023-06-19T00:40:24;21.77;;;20.13;;
76731;SDS011;65656;51.130;13.658;2023-06-19T00:44:28;29.05;;;27.05;;
76731;SDS011;65656;51.130;13.658;2023-06-19T00:48:30;25.90;;;24.15;;
76731;SDS011;65656;51.130;13.658;2023-06-19T00:52:35;25.00;;;23.30;;
76731;SDS011;65656;51.130;13.658;2023-06-19T00:56:37;25.63;;;23.90;;
76731;SDS011;65656;51.130;13.658;2023-06-19T01:00:39;20.70;;;19.20;;
76731;SDS011;65656;51.130;13.658;2023-06-19T01:04:40;20.42;;;18.92;;
76731;SDS011;65656;51.130;13.658;2023-06-19T01:08:45;24.05;;;22.25;;
76731;SDS011;65656;51.130;13.658;2023-06-19T01:12:52;19.95;;;18.55;;
76731;SDS011;65656;51.130;13.658;2023-06-19T01:16:58;20.70;;;18.95;;
76731;SDS011;65656;51.130;13.658;2023-06-19T01:21:08;27.23;;;25.45;;
76731;SDS011;65656;51.130;13.658;2023-06-19T01:29:14;23.52;;;21.75;;
76731;SDS011;65656;51.130;13.658;2023-06-19T01:33:18;25.08;;;23.23;;
76731;SDS011;65656;51.130;13.658;2023-06-19T01:37:24;23.35;;;21.75;;
76731;SDS011;65656;51.130;13.658;2023-06-19T01:41:28;19.65;;;18.20;;
76731;SDS011;65656;51.130;13.658;2023-06-19T01:45:31;13.93;;;11.80;;
76731;SDS011;65656;51.130;13.658;2023-06-19T01:49:33;22.38;;;20.70;;
76731;SDS011;65656;51.130;13.658;2023-06-19T01:53:34;23.25;;;21.67;;
76731;SDS011;65656;51.130;13.658;2023-06-19T01:57:37;24.45;;;22.73;;
76731;SDS011;65656;51.130;13.658;2023-06-19T02:01:38;26.50;;;24.42;;
76731;SDS011;65656;51.130;13.658;2023-06-19T02:05:40;17.42;;;15.88;;
76731;SDS011;65656;51.130;13.658;2023-06-19T02:09:41;19.65;;;18.05;;
76731;SDS011;65656;51.130;13.658;2023-06-19T02:13:44;22.02;;;20.48;;
76731;SDS011;65656;51.130;13.658;2023-06-19T02:17:46;21.38;;;19.75;;
76731;SDS011;65656;51.130;13.658;2023-06-19T02:21:47;24.70;;;22.88;;
76731;SDS011;65656;51.130;13.658;2023-06-19T02:25:49;19.42;;;17.90;;
76731;SDS011;65656;51.130;13.658;2023-06-19T02:29:51;22.75;;;21.05;;
76731;SDS011;65656;51.130;13.658;2023-06-19T02:33:53;24.63;;;22.77;;
76731;SDS011;65656;51.130;13.658;2023-06-19T02:37:54;28.90;;;27.00;;
76731;SDS011;65656;51.130;13.658;2023-06-19T02:41:56;23.02;;;21.13;;
76731;SDS011;65656;51.130;13.658;2023-06-19T02:45:58;19.48;;;17.92;;
76731;SDS011;65656;51.130;13.658;2023-06-19T02:50:01;23.60;;;21.77;;
76731;SDS011;65656;51.130;13.658;2023-06-19T02:54:04;25.27;;;23.50;;
76731;SDS011;65656;51.130;13.658;2023-06-19T02:58:05;21.75;;;19.75;;
76731;SDS011;65656;51.130;13.658;2023-06-19T03:02:08;22.42;;;20.55;;
76731;SDS011;65656;51.130;13.658;2023-06-19T03:06:09;25.52;;;23.77;;
76731;SDS011;65656;51.130;13.658;2023-06-19T03:10:11;27.35;;;25.35;;
76731;SDS011;65656;51.130;13.658;2023-06-19T03:14:12;23.88;;;22.15;;
76731;SDS011;65656;51.130;13.658;2023-06-19T03:18:15;21.85;;;20.13;;
76731;SDS011;65656;51.130;13.658;2023-06-19T03:22:17;21.60;;;19.80;;
76731;SDS011;65656;51.130;13.658;2023-06-19T03:26:19;22.15;;;20.48;;
76731;SDS011;65656;51.130;13.658;2023-06-19T03:30:21;25.90;;;24.02;;
76731;SDS011;65656;51.130;13.658;2023-06-19T03:34:24;21.45;;;19.83;;
76731;SDS011;65656;51.130;13.658;2023-06-19T03:38:26;21.98;;;20.42;;
76731;SDS011;65656;51.130;13.658;2023-06-19T03:42:27;24.92;;;22.70;;
76731;SDS011;65656;51.130;13.658;2023-06-19T03:46:29;30.23;;;28.20;;
76731;SDS011;65656;51.130;13.658;2023-06-19T03:50:32;24.15;;;22.45;;
76731;SDS011;65656;51.130;13.658;2023-06-19T03:54:34;24.80;;;22.77;;
76731;SDS011;65656;51.130;13.658;2023-06-19T03:58:35;26.88;;;25.05;;
76731;SDS011;65656;51.130;13.658;2023-06-19T04:02:37;24.10;;;22.23;;
76731;SDS011;65656;51.130;13.658;2023-06-19T04:06:40;26.52;;;24.63;;
76731;SDS011;65656;51.130;13.658;2023-06-19T04:10:41;29.38;;;27.42;;
76731;SDS011;65656;51.130;13.658;2023-06-19T04:14:42;28.13;;;26.10;;
76731;SDS011;65656;51.130;13.658;2023-06-19T04:18:44;27.13;;;25.00;;
76731;SDS011;65656;51.130;13.658;2023-06-19T04:22:47;27.15;;;25.10;;
76731;SDS011;65656;51.130;13.658;2023-06-19T04:26:48;23.02;;;21.40;;
76731;SDS011;65656;51.130;13.658;2023-06-19T04:30:50;21.70;;;20.00;;
76731;SDS011;65656;51.130;13.658;2023-06-19T04:34:51;23.52;;;21.80;;
76731;SDS011;65656;51.130;13.658;2023-06-19T04:38:54;26.10;;;24.17;;
76731;SDS011;65656;51.130;13.658;2023-06-19T04:42:55;22.55;;;20.27;;
76731;SDS011;65656;51.130;13.658;2023-06-19T04:46:57;20.05;;;18.25;;
76731;SDS011;65656;51.130;13.658;2023-06-19T04:50:58;20.20;;;18.38;;
76731;SDS011;65656;51.130;13.658;2023-06-19T04:55:01;20.88;;;19.27;;
76731;SDS011;65656;51.130;13.658;2023-06-19T04:59:03;21.73;;;20.08;;
76731;SDS011;65656;51.130;13.658;2023-06-19T05:03:04;21.50;;;19.80;;
76731;SDS011;65656;51.130;13.658;2023-06-19T05:07:06;18.85;;;17.25;;
76731;SDS011;65656;51.130;13.658;2023-06-19T05:11:08;19.80;;;18.15;;
76731;SDS011;65656;51.130;13.658;2023-06-19T05:15:10;22.20;;;20.70;;
76731;SDS011;65656;51.130;13.658;2023-06-19T05:19:12;22.17;;;20.55;;
76731;SDS011;65656;51.130;13.658;2023-06-19T05:23:13;22.98;;;21.15;;
76731;SDS011;65656;51.130;13.658;2023-06-19T05:27:16;20.73;;;19.02;;
76731;SDS011;65656;51.130;13.658;2023-06-19T05:31:18;23.05;;;21.35;;
76731;SDS011;65656;51.130;13.658;2023-06-19T05:35:19;24.38;;;22.48;;
76731;SDS011;65656;51.130;13.658;2023-06-19T05:39:21;22.05;;;20.55;;
76731;SDS011;65656;51.130;13.658;2023-06-19T05:43:23;26.45;;;24.48;;
76731;SDS011;65656;51.130;13.658;2023-06-19T05:47:25;22.40;;;20.50;;
76731;SDS011;65656;51.130;13.658;2023-06-19T05:51:26;21.38;;;19.70;;
76731;SDS011;65656;51.130;13.658;2023-06-19T05:55:28;25.95;;;24.15;;
76731;SDS011;65656;51.130;13.658;2023-06-19T05:59:31;19.75;;;18.17;;
76731;SDS011;65656;51.130;13.658;2023-06-19T06:03:32;17.00;;;15.48;;
76731;SDS011;65656;51.130;13.658;2023-06-19T06:07:34;20.25;;;18.75;;
76731;SDS011;65656;51.130;13.658;2023-06-19T06:11:38;19.85;;;18.40;;
76731;SDS011;65656;51.130;13.658;2023-06-19T06:15:40;20.95;;;19.45;;
76731;SDS011;65656;51.130;13.658;2023-06-19T06:19:42;19.88;;;18.38;;
76731;SDS011;65656;51.130;13.658;2023-06-19T06:23:43;19.60;;;18.23;;
76731;SDS011;65656;51.130;13.658;2023-06-19T06:27:45;21.75;;;20.08;;
76731;SDS011;65656;51.130;13.658;2023-06-19T06:31:48;19.08;;;17.58;;
76731;SDS011;65656;51.130;13.658;2023-06-19T06:35:50;23.92;;;22.00;;
76731;SDS011;65656;51.130;13.658;2023-06-19T06:39:51;18.85;;;17.17;;
76731;SDS011;65656;51.130;13.658;2023-06-19T06:43:53;19.90;;;18.30;;
76731;SDS011;65656;51.130;13.658;2023-06-19T06:47:56;19.05;;;17.02;;
76731;SDS011;65656;51.130;13.658;2023-06-19T06:51:57;22.02;;;20.45;;
76731;SDS011;65656;51.130;13.658;2023-06-19T06:55:59;19.85;;;18.17;;
76731;SDS011;65656;51.130;13.658;2023-06-19T07:00:00;22.63;;;20.15;;
76731;SDS011;65656;51.130;13.658;2023-06-19T07:04:03;20.77;;;19.05;;
76731;SDS011;65656;51.130;13.658;2023-06-19T07:08:05;22.55;;;20.95;;
76731;SDS011;65656;51.130;13.658;2023-06-19T07:12:07;21.50;;;19.90;;
76731;SDS011;65656;51.130;13.658;2023-06-19T07:16:09;17.52;;;16.20;;
76731;SDS011;65656;51.130;13.658;2023-06-19T07:20:11;22.48;;;20.58;;
76731;SDS011;65656;51.130;13.658;2023-06-19T07:24:13;19.50;;;17.98;;
76731;SDS011;65656;51.130;13.658;2023-06-19T07:28:14;17.33;;;15.82;;
76731;SDS011;65656;51.130;13.658;2023-06-19T07:32:16;20.73;;;18.98;;
76731;SDS011;65656;51.130;13.658;2023-06-19T07:36:19;11.93;;;10.35;;
76731;SDS011;65656;51.130;13.658;2023-06-19T07:40:20;20.85;;;19.30;;
76731;SDS011;65656;51.130;13.658;2023-06-19T07:44:23;16.13;;;14.73;;
76731;SDS011;65656;51.130;13.658;2023-06-19T07:48:24;16.65;;;15.15;;
76731;SDS011;65656;51.130;13.658;2023-06-19T07:52:27;19.63;;;18.13;;
76731;SDS011;65656;51.130;13.658;2023-06-19T07:56:29;19.95;;;18.45;;
76731;SDS011;65656;51.130;13.658;2023-06-19T08:00:30;12.00;;;10.93;;
76731;SDS011;65656;51.130;13.658;2023-06-19T08:04:32;15.75;;;14.45;;
76731;SDS011;65656;51.130;13.658;2023-06-19T08:08:36;16.10;;;14.90;;
76731;SDS011;65656;51.130;13.658;2023-06-19T08:12:37;17.70;;;16.30;;
76731;SDS011;65656;51.130;13.658;2023-06-19T08:16:39;16.65;;;15.40;;
76731;SDS011;65656;51.130;13.658;2023-06-19T08:20:40;14.05;;;12.75;;
76731;SDS011;65656;51.130;13.658;2023-06-19T08:24:43;15.40;;;14.10;;
76731;SDS011;65656;51.130;13.658;2023-06-19T08:28:45;16.70;;;15.45;;
76731;SDS011;65656;51.130;13.658;2023-06-19T08:32:46;16.15;;;14.80;;
76731;SDS011;65656;51.130;13.658;2023-06-19T08:36:48;9.68;;;8.23;;
76731;SDS011;65656;51.130;13.658;2023-06-19T08:40:51;16.77;;;15.55;;
76731;SDS011;65656;51.130;13.658;2023-06-19T08:44:53;15.55;;;14.35;;
76731;SDS011;65656;51.130;13.658;2023-06-19T08:48:54;14.57;;;13.30;;
76731;SDS011;65656;51.130;13.658;2023-06-19T08:52:56;15.15;;;14.00;;
76731;SDS011;65656;51.130;13.658;2023-06-19T08:57:01;17.92;;;16.60;;
76731;SDS011;65656;51.130;13.658;2023-06-19T09:01:03;11.95;;;10.75;;
76731;SDS011;65656;51.130;13.658;2023-06-19T09:05:11;20.00;;;18.60;;
76731;SDS011;65656;51.130;13.658;2023-06-19T09:09:15;14.45;;;13.23;;
76731;SDS011;65656;51.130;13.658;2023-06-19T09:13:18;18.67;;;17.23;;
76731;SDS011;65656;51.130;13.658;2023-06-19T09:17:19;17.35;;;16.05;;
76731;SDS011;65656;51.130;13.658;2023-06-19T09:21:22;15.25;;;14.15;;
76731;SDS011;65656;51.130;13.658;2023-06-19T09:25:23;16.42;;;15.23;;
76731;SDS011;65656;51.130;13.658;2023-06-19T09:29:26;15.32;;;14.13;;
76731;SDS011;65656;51.130;13.658;2023-06-19T09:33:28;13.63;;;12.25;;
76731;SDS011;65656;51.130;13.658;2023-06-19T09:37:31;15.35;;;14.20;;
76731;SDS011;65656;51.130;13.658;2023-06-19T09:41:32;19.13;;;17.65;;
76731;SDS011;65656;51.130;13.658;2023-06-19T09:49:40;16.58;;;15.27;;
76731;SDS011;65656;51.130;13.658;2023-06-19T09:53:42;18.42;;;16.88;;
76731;SDS011;65656;51.130;13.658;2023-06-19T09:57:45;17.27;;;15.60;;
76731;SDS011;65656;51.130;13.658;2023-06-19T10:01:49;15.70;;;14.45;;
76731;SDS011;65656;51.130;13.658;2023-06-19T10:05:57;16.27;;;15.02;;
76731;SDS011;65656;51.130;13.658;2023-06-19T10:09:59;17.73;;;16.42;;
76731;SDS011;65656;51.130;13.658;2023-06-19T10:14:05;15.52;;;14.32;;
76731;SDS011;65656;51.130;13.658;2023-06-19T10:18:12;15.85;;;14.45;;
76731;SDS011;65656;51.130;13.658;2023-06-19T10:22:19;9.75;;;8.75;;
76731;SDS011;65656;51.130;13.658;2023-06-19T10:26:28;20.38;;;18.83;;
76731;SDS011;65656;51.130;13.658;2023-06-19T10:30:31;13.00;;;12.00;;
76731;SDS011;65656;51.130;13.658;2023-06-19T10:34:34;15.48;;;14.13;;
76731;SDS011;65656;51.130;13.658;2023-06-19T10:38:36;14.18;;;13.07;;
76731;SDS011;65656;51.130;13.658;2023-06-19T10:42:38;10.88;;;9.73;;
76731;SDS011;65656;51.130;13.658;2023-06-19T10:46:39;10.57;;;9.57;;
76731;SDS011;65656;51.130;13.658;2023-06-19T10:50:42;15.80;;;14.35;;
76731;SDS011;65656;51.130;13.658;2023-06-19T10:54:44;13.35;;;12.15;;
76731;SDS011;65656;51.130;13.658;2023-06-19T10:58:45;16.38;;;14.98;;
76731;SDS011;65656;51.130;13.658;2023-06-19T11:02:47;15.60;;;14.25;;
76731;SDS011;65656;51.130;13.658;2023-06-19T11:06:50;13.93;;;12.73;;
76731;SDS011;65656;51.130;13.658;2023-06-19T11:10:51;15.27;;;14.07;;
76731;SDS011;65656;51.130;13.658;2023-06-19T11:14:53;13.82;;;12.73;;
76731;SDS011;65656;51.130;13.658;2023-06-19T11:18:55;13.38;;;12.15;;
76731;SDS011;65656;51.130;13.658;2023-06-19T11:22:59;14.85;;;13.73;;
76731;SDS011;65656;51.130;13.658;2023-06-19T11:27:02;15.43;;;14.23;;
76731;SDS011;65656;51.130;13.658;2023-06-19T11:31:03;14.65;;;13.43;;
76731;SDS011;65656;51.130;13.658;2023-06-19T11:35:05;10.50;;;9.50;;
76731;SDS011;65656;51.130;13.658;2023-06-19T11:39:10;9.38;;;8.48;;
76731;SDS011;65656;51.130;13.658;2023-06-19T11:43:22;14.00;;;12.70;;
76731;SDS011;65656;51.130;13.658;2023-06-19T11:47:25;13.68;;;12.57;;
76731;SDS011;65656;51.130;13.658;2023-06-19T11:51:27;12.77;;;11.60;;
76731;SDS011;65656;51.130;13.658;2023-06-19T11:55:30;12.32;;;11.25;;
76731;SDS011;65656;51.130;13.658;2023-06-19T11:59:31;14.32;;;13.07;;
76731;SDS011;65656;51.130;13.658;2023-06-19T12:03:33;11.88;;;10.88;;
76731;SDS011;65656;51.130;13.658;2023-06-19T12:07:34;11.18;;;10.05;;
76731;SDS011;65656;51.130;13.658;2023-06-19T12:11:37;12.57;;;11.48;;
76731;SDS011;65656;51.130;13.658;2023-06-19T12:15:39;13.65;;;12.38;;
76731;SDS011;65656;51.130;13.658;2023-06-19T12:19:40;10.90;;;9.90;;
76731;SDS011;65656;51.130;13.658;2023-06-19T12:23:41;9.85;;;8.25;;
76731;SDS011;65656;51.130;13.658;2023-06-19T12:27:44;8.50;;;7.70;;
76731;SDS011;65656;51.130;13.658;2023-06-19T12:31:46;11.75;;;8.63;;
76731;SDS011;65656;51.130;13.658;2023-06-19T12:35:47;10.95;;;9.85;;
76731;SDS011;65656;51.130;13.658;2023-06-19T12:39:49;7.70;;;6.90;;
76731;SDS011;65656;51.130;13.658;2023-06-19T12:43:52;10.60;;;9.70;;
76731;SDS011;65656;51.130;13.658;2023-06-19T12:47:54;11.75;;;10.80;;
76731;SDS011;65656;51.130;13.658;2023-06-19T12:51:56;10.07;;;8.98;;
76731;SDS011;65656;51.130;13.658;2023-06-19T12:55:58;10.93;;;10.02;;
76731;SDS011;65656;51.130;13.658;2023-06-19T13:00:07;10.68;;;9.85;;
76731;SDS011;65656;51.130;13.658;2023-06-19T13:04:11;8.23;;;7.40;;
76731;SDS011;65656;51.130;13.658;2023-06-19T13:08:14;10.60;;;9.50;;
76731;SDS011;65656;51.130;13.658;2023-06-19T13:12:16;8.40;;;7.60;;
76731;SDS011;65656;51.130;13.658;2023-06-19T13:16:19;9.88;;;9.00;;
76731;SDS011;65656;51.130;13.658;2023-06-19T13:20:40;11.02;;;10.13;;
76731;SDS011;65656;51.130;13.658;2023-06-19T13:24:42;10.68;;;9.82;;
76731;SDS011;65656;51.130;13.658;2023-06-19T13:28:43;10.82;;;9.93;;
76731;SDS011;65656;51.130;13.658;2023-06-19T13:32:46;10.43;;;9.50;;
76731;SDS011;65656;51.130;13.658;2023-06-19T13:36:48;8.48;;;7.60;;
76731;SDS011;65656;51.130;13.658;2023-06-19T13:40:49;10.48;;;9.45;;
76731;SDS011;65656;51.130;13.658;2023-06-19T13:44:51;6.88;;;6.22;;
76731;SDS011;65656;51.130;13.658;2023-06-19T13:48:53;11.48;;;10.55;;
76731;SDS011;65656;51.130;13.658;2023-06-19T13:52:55;11.05;;;10.05;;
76731;SDS011;65656;51.130;13.658;2023-06-19T13:56:56;8.38;;;6.80;;
76731;SDS011;65656;51.130;13.658;2023-06-19T14:00:58;10.90;;;10.00;;
76731;SDS011;65656;51.130;13.658;2023-06-19T14:05:01;12.30;;;11.30;;
76731;SDS011;65656;51.130;13.658;2023-06-19T14:09:02;9.82;;;8.85;;
76731;SDS011;65656;51.130;13.658;2023-06-19T14:13:04;7.72;;;6.65;;
76731;SDS011;65656;51.130;13.658;2023-06-19T14:17:05;10.82;;;8.90;;
76731;SDS011;65656;51.130;13.658;2023-06-19T14:21:08;10.25;;;9.35;;
76731;SDS011;65656;51.130;13.658;2023-06-19T14:25:09;9.50;;;8.60;;
76731;SDS011;65656;51.130;13.658;2023-06-19T14:29:11;11.05;;;9.90;;
76731;SDS011;65656;51.130;13.658;2023-06-19T14:33:13;12.20;;;11.10;;
76731;SDS011;65656;51.130;13.658;2023-06-19T14:37:15;10.50;;;9.35;;
76731;SDS011;65656;51.130;13.658;2023-06-19T14:41:17;10.02;;;9.10;;
76731;SDS011;65656;51.130;13.658;2023-06-19T14:45:18;10.02;;;9.02;;
76731;SDS011;65656;51.130;13.658;2023-06-19T14:49:20;10.10;;;9.07;;
76731;SDS011;65656;51.130;13.658;2023-06-19T14:53:23;11.88;;;8.82;;
76731;SDS011;65656;51.130;13.658;2023-06-19T14:57:24;10.35;;;9.35;;
76731;SDS011;65656;51.130;13.658;2023-06-19T15:01:26;9.82;;;8.80;;
76731;SDS011;65656;51.130;13.658;2023-06-19T15:05:27;10.68;;;9.57;;
76731;SDS011;65656;51.130;13.658;2023-06-19T15:09:30;12.85;;;11.85;;
76731;SDS011;65656;51.130;13.658;2023-06-19T15:13:32;10.70;;;9.68;;
76731;SDS011;65656;51.130;13.658;2023-06-19T15:17:33;16.35;;;15.05;;
76731;SDS011;65656;51.130;13.658;2023-06-19T15:21:35;13.40;;;12.05;;
76731;SDS011;65656;51.130;13.658;2023-06-19T15:25:38;11.52;;;10.52;;
76731;SDS011;65656;51.130;13.658;2023-06-19T15:29:39;13.10;;;12.02;;
76731;SDS011;65656;51.130;13.658;2023-06-19T15:33:41;10.52;;;8.38;;
76731;SDS011;65656;51.130;13.658;2023-06-19T15:37:42;12.80;;;11.70;;
76731;SDS011;65656;51.130;13.658;2023-06-19T15:41:45;15.00;;;13.80;;
76731;SDS011;65656;51.130;13.658;2023-06-19T15:45:47;10.02;;;9.07;;
76731;SDS011;65656;51.130;13.658;2023-06-19T15:49:48;12.82;;;11.63;;
76731;SDS011;65656;51.130;13.658;2023-06-19T15:53:50;13.48;;;12.20;;
76731;SDS011;65656;51.130;13.658;2023-06-19T15:57:52;8.75;;;7.72;;
76731;SDS011;65656;51.130;13.658;2023-06-19T16:01:54;11.68;;;10.48;;
76731;SDS011;65656;51.130;13.658;2023-06-19T16:05:56;11.25;;;10.23;;
76731;SDS011;65656;51.130;13.658;2023-06-19T16:10:07;13.80;;;12.50;;
76731;SDS011;65656;51.130;13.658;2023-06-19T16:14:10;10.25;;;8.43;;
76731;SDS011;65656;51.130;13.658;2023-06-19T16:18:12;9.27;;;8.07;;
76731;SDS011;65656;51.130;13.658;2023-06-19T16:22:13;12.13;;;11.05;;
76731;SDS011;65656;51.130;13.658;2023-06-19T16:26:15;10.43;;;9.50;;
76731;SDS011;65656;51.130;13.658;2023-06-19T16:30:18;8.35;;;7.15;;
76731;SDS011;65656;51.130;13.658;2023-06-19T16:34:20;7.80;;;7.10;;
76731;SDS011;65656;51.130;13.658;2023-06-19T16:38:21;8.35;;;7.55;;
76731;SDS011;65656;51.130;13.658;2023-06-19T16:42:23;10.50;;;9.40;;
76731;SDS011;65656;51.130;13.658;2023-06-19T16:46:26;8.88;;;7.82;;
76731;SDS011;65656;51.130;13.658;2023-06-19T16:50:29;11.63;;;10.52;;
76731;SDS011;65656;51.130;13.658;2023-06-19T16:54:30;11.40;;;10.38;;
76731;SDS011;65656;51.130;13.658;2023-06-19T16:58:32;11.38;;;10.25;;
76731;SDS011;65656;51.130;13.658;2023-06-19T17:02:34;8.98;;;8.07;;
76731;SDS011;65656;51.130;13.658;2023-06-19T17:06:36;12.15;;;11.15;;
76731;SDS011;65656;51.130;13.658;2023-06-19T17:10:38;8.63;;;7.72;;
76731;SDS011;65656;51.130;13.658;2023-06-19T17:14:39;9.32;;;8.43;;
76731;SDS011;65656;51.130;13.658;2023-06-19T17:18:43;11.32;;;9.02;;
76731;SDS011;65656;51.130;13.658;2023-06-19T17:22:45;10.63;;;9.10;;
76731;SDS011;65656;51.130;13.658;2023-06-19T17:26:47;12.30;;;11.10;;
76731;SDS011;65656;51.130;13.658;2023-06-19T17:30:48;15.00;;;9.10;;
76731;SDS011;65656;51.130;13.658;2023-06-19T17:34:51;12.68;;;11.57;;
76731;SDS011;65656;51.130;13.658;2023-06-19T17:38:52;9.50;;;8.52;;
76731;SDS011;65656;51.130;13.658;2023-06-19T17:42:54;10.48;;;8.90;;
76731;SDS011;65656;51.130;13.658;2023-06-19T17:46:55;12.07;;;10.88;;
76731;SDS011;65656;51.130;13.658;2023-06-19T17:50:58;13.88;;;12.68;;
76731;SDS011;65656;51.130;13.658;2023-06-19T17:55:00;14.85;;;12.65;;
76731;SDS011;65656;51.130;13.658;2023-06-19T17:59:01;12.82;;;11.73;;
76731;SDS011;65656;51.130;13.658;2023-06-19T18:03:03;11.48;;;10.43;;
76731;SDS011;65656;51.130;13.658;2023-06-19T18:07:06;14.82;;;13.63;;
76731;SDS011;65656;51.130;13.658;2023-06-19T18:11:07;13.45;;;12.32;;
76731;SDS011;65656;51.130;13.658;2023-06-19T18:15:09;12.57;;;11.48;;
76731;SDS011;65656;51.130;13.658;2023-06-19T18:19:11;12.13;;;10.93;;
76731;SDS011;65656;51.130;13.658;2023-06-19T18:23:14;10.88;;;9.68;;
76731;SDS011;65656;51.130;13.658;2023-06-19T18:27:16;14.50;;;13.20;;
76731;SDS011;65656;51.130;13.658;2023-06-19T18:31:17;14.50;;;13.20;;
76731;SDS011;65656;51.130;13.658;2023-06-19T18:35:19;13.38;;;12.10;;
76731;SDS011;65656;51.130;13.658;2023-06-19T18:39:21;13.73;;;12.63;;
76731;SDS011;65656;51.130;13.658;2023-06-19T18:43:23;15.52;;;14.18;;
76731;SDS011;65656;51.130;13.658;2023-06-19T18:47:24;14.25;;;12.95;;
76731;SDS011;65656;51.130;13.658;2023-06-19T18:51:26;12.88;;;11.75;;
76731;SDS011;65656;51.130;13.658;2023-06-19T18:55:29;16.30;;;14.13;;
76731;SDS011;65656;51.130;13.658;2023-06-19T18:59:30;15.57;;;13.93;;
76731;SDS011;65656;51.130;13.658;2023-06-19T19:03:32;12.27;;;10.77;;
76731;SDS011;65656;51.130;13.658;2023-06-19T19:07:34;15.13;;;13.82;;
76731;SDS011;65656;51.130;13.658;2023-06-19T19:11:37;15.50;;;14.05;;
76731;SDS011;65656;51.130;13.658;2023-06-19T19:15:38;16.83;;;15.38;;
76731;SDS011;65656;51.130;13.658;2023-06-19T19:19:40;14.95;;;13.65;;
76731;SDS011;65656;51.130;13.658;2023-06-19T19:23:41;15.60;;;14.00;;
76731;SDS011;65656;51.130;13.658;2023-06-19T19:27:44;19.05;;;17.38;;
76731;SDS011;65656;51.130;13.658;2023-06-19T19:31:45;22.17;;;20.45;;
76731;SDS011;65656;51.130;13.658;2023-06-19T19:35:47;16.83;;;15.20;;
76731;SDS011;65656;51.130;13.658;2023-06-19T19:39:48;16.40;;;14.65;;
76731;SDS011;65656;51.130;13.658;2023-06-19T19:43:51;20.73;;;18.92;;
76731;SDS011;65656;51.130;13.658;2023-06-19T19:47:53;17.30;;;15.60;;
76731;SDS011;65656;51.130;13.658;2023-06-19T19:51:54;18.88;;;17.08;;
76731;SDS011;65656;51.130;13.658;2023-06-19T19:55:55;20.55;;;17.05;;
76731;SDS011;65656;51.130;13.658;2023-06-19T19:59:58;19.17;;;17.27;;
76731;SDS011;65656;51.130;13.658;2023-06-19T20:04:00;20.25;;;18.35;;
76731;SDS011;65656;51.130;13.658;2023-06-19T20:08:02;21.08;;;19.35;;
76731;SDS011;65656;51.130;13.658;2023-06-19T20:12:04;20.00;;;18.05;;
76731;SDS011;65656;51.130;13.658;2023-06-19T20:16:23;19.73;;;18.10;;
76731;SDS011;65656;51.130;13.658;2023-06-19T20:20:24;19.40;;;17.80;;
76731;SDS011;65656;51.130;13.658;2023-06-19T20:24:26;21.90;;;19.17;;
76731;SDS011;65656;51.130;13.658;2023-06-19T20:28:28;20.40;;;18.60;;
76731;SDS011;65656;51.130;13.658;2023-06-19T20:32:30;20.27;;;18.65;;
76731;SDS011;65656;51.130;13.658;2023-06-19T20:36:32;20.42;;;18.52;;
76731;SDS011;65656;51.130;13.658;2023-06-19T20:40:33;18.58;;;16.67;;
76731;SDS011;65656;51.130;13.658;2023-06-19T20:44:35;19.83;;;18.10;;
76731;SDS011;65656;51.130;13.658;2023-06-19T20:48:38;18.42;;;16.73;;
76731;SDS011;65656;51.130;13.658;2023-06-19T20:52:42;19.95;;;18.25;;
76731;SDS011;65656;51.130;13.658;2023-06-19T20:56:44;19.40;;;17.35;;
76731;SDS011;65656;51.130;13.658;2023-06-19T21:00:45;21.02;;;19.23;;
76731;SDS011;65656;51.130;13.658;2023-06-19T21:04:48;17.65;;;16.15;;
76731;SDS011;65656;51.130;13.658;2023-06-19T21:08:50;19.92;;;18.20;;
76731;SDS011;65656;51.130;13.658;2023-06-19T21:12:51;19.83;;;18.08;;
76731;SDS011;65656;51.130;13.658;2023-06-19T21:16:53;20.10;;;18.35;;
76731;SDS011;65656;51.130;13.658;2023-06-19T21:20:55;19.08;;;17.20;;
76731;SDS011;65656;51.130;13.658;2023-06-19T21:24:57;20.45;;;18.80;;
76731;SDS011;65656;51.130;13.658;2023-06-19T21:28:58;20.40;;;18.63;;
76731;SDS011;65656;51.130;13.658;2023-06-19T21:33:00;20.85;;;19.02;;
76731;SDS011;65656;51.130;13.658;2023-06-19T21:37:03;19.63;;;17.75;;
76731;SDS011;65656;51.130;13.658;2023-06-19T21:41:05;20.02;;;18.42;;
76731;SDS011;65656;51.130;13.658;2023-06-19T21:45:07;17.83;;;14.82;;
76731;SDS011;65656;51.130;13.658;2023-06-19T21:49:09;19.05;;;17.35;;
76731;SDS011;65656;51.130;13.658;2023-06-19T21:53:11;20.05;;;18.15;;
76731;SDS011;65656;51.130;13.658;2023-06-19T21:57:13;21.20;;;19.40;;
76731;SDS011;65656;51.130;13.658;2023-06-19T22:01:14;20.73;;;19.02;;
76731;SDS011;65656;51.130;13.658;2023-06-19T22:05:16;19.02;;;16.58;;
76731;SDS011;65656;51.130;13.658;2023-06-19T22:09:19;20.40;;;18.02;;
76731;SDS011;65656;51.130;13.658;2023-06-19T22:13:20;19.15;;;17.17;;
76731;SDS011;65656;51.130;13.658;2023-06-19T22:17:22;19.50;;;16.83;;
76731;SDS011;65656;51.130;13.658;2023-06-19T22:21:23;19.42;;;17.73;;
76731;SDS011;65656;51.130;13.658;2023-06-19T22:25:26;19.02;;;17.42;;
76731;SDS011;65656;51.130;13.658;2023-06-19T22:29:27;21.17;;;19.33;;
76731;SDS011;65656;51.130;13.658;2023-06-19T22:33:29;19.75;;;17.80;;
76731;SDS011;65656;51.130;13.658;2023-06-19T22:37:30;19.45;;;17.65;;
76731;SDS011;65656;51.130;13.658;2023-06-19T22:41:33;17.85;;;16.15;;
76731;SDS011;65656;51.130;13.658;2023-06-19T22:45:35;15.68;;;13.95;;
76731;SDS011;65656;51.130;13.658;2023-06-19T22:49:36;22.48;;;16.63;;
76731;SDS011;65656;51.130;13.658;2023-06-19T22:53:38;20.50;;;18.83;;
76731;SDS011;65656;51.130;13.658;2023-06-19T22:57:41;21.40;;;19.50;;
76731;SDS011;65656;51.130;13.658;2023-06-19T23:01:42;21.08;;;19.38;;
76731;SDS011;65656;51.130;13.658;2023-06-19T23:05:44;23.52;;;21.63;;
76731;SDS011;65656;51.130;13.658;2023-06-19T23:09:45;23.13;;;21.13;;
76731;SDS011;65656;51.130;13.658;2023-06-19T23:13:48;22.90;;;21.05;;
76731;SDS011;65656;51.130;13.658;2023-06-19T23:17:49;22.33;;;20.42;;
76731;SDS011;65656;51.130;13.658;2023-06-19T23:21:51;23.10;;;21.15;;
76731;SDS011;65656;51.130;13.658;2023-06-19T23:25:52;19.10;;;17.42;;
76731;SDS011;65656;51.130;13.658;2023-06-19T23:29:55;20.60;;;18.83;;